Observation data for Lamesa on 04/16/2021      Previous  Date  Next       Current Mesonet Observations  Soil Data  Daily Summary Page  Observations in Plain Language
KLES 160500Z 10006KT 10/09 A2989 RMK A01 T01000093  RH  098%=      5-min Rain = 0
KLES 160505Z 11007KT 10/09 A2989 RMK A01 T01000093  RH  099%=      5-min Rain = 0
KLES 160510Z 11008KT 10/09 A2989 RMK A01 T01000093  RH  098%=      5-min Rain = 0
KLES 160515Z 11008KT 10/09 A2989 RMK A01 T01000094  RH  099%=      5-min Rain = 0
KLES 160520Z 11007KT 10/09 A2989 RMK A01 T01010094  RH  098%=      5-min Rain = 0
KLES 160525Z 11008KT 10/09 A2989 RMK A01 T01000094  RH  099%=      5-min Rain = 0
KLES 160530Z 11008KT 10/09 A2988 RMK A01 T01000094  RH  099%=      5-min Rain = 0
KLES 160535Z 10008KT 10/09 A2988 RMK A01 T01010094  RH  099%=      5-min Rain = 0
KLES 160540Z 09008KT 10/09 A2988 RMK A01 T01010094  RH  099%=      5-min Rain = 0
KLES 160545Z 08006KT 10/09 A2988 RMK A01 T01010094  RH  099%=      5-min Rain = 0
KLES 160550Z 08006KT 10/09 A2988 RMK A01 T01010094  RH  099%=      5-min Rain = 0
KLES 160555Z 09006KT 10/10 A2988 RMK A01 T01010095  RH  099%=      5-min Rain = 0
KLES 160600Z 10006KT 10/10 A2988 RMK A01 T01020095  RH  099%=      5-min Rain = 0
KLES 160605Z 11006KT 10/10 A2987 RMK A01 T01020095  RH  099%=      5-min Rain = 0
KLES 160610Z 11007KT 10/10 A2987 RMK A01 T01020095  RH  099%=      5-min Rain = 0
KLES 160615Z 10006KT 10/10 A2987 RMK A01 T01020095  RH  099%=      5-min Rain = 0
KLES 160620Z 10006KT 10/10 A2987 RMK A01 T01020096  RH  099%=      5-min Rain = 0
KLES 160625Z 10006KT 10/10 A2987 RMK A01 T01030096  RH  099%=      5-min Rain = 0
KLES 160630Z 09004KT 10/10 A2987 RMK A01 T01030096  RH  099%=      5-min Rain = 0
KLES 160635Z 07003KT 10/10 A2988 RMK A01 T01030096  RH  099%=      5-min Rain = 0
KLES 160640Z 06004KT 10/10 A2988 RMK A01 T01030096  RH  099%=      5-min Rain = 0
KLES 160645Z 06004KT 10/10 A2988 RMK A01 T01030096  RH  099%=      5-min Rain = 0
KLES 160650Z 07004KT 10/10 A2987 RMK A01 T01030096  RH  099%=      5-min Rain = 0
KLES 160655Z 07005KT 10/10 A2987 RMK A01 T01030096  RH  099%=      5-min Rain = 0
KLES 160700Z 07005KT 10/10 A2987 RMK A01 T01020095  RH  099%=      5-min Rain = 0
KLES 160705Z 07005KT 10/10 A2986 RMK A01 T01020095  RH  099%=      5-min Rain = 0
KLES 160710Z 09005KT 10/10 A2986 RMK A01 T01020095  RH  099%=      5-min Rain = 0
KLES 160715Z 08004KT 10/10 A2985 RMK A01 T01020096  RH  099%=      5-min Rain = 0
KLES 160720Z 08004KT 10/10 A2985 RMK A01 T01020096  RH  099%=      5-min Rain = 0
KLES 160725Z 08004KT 10/10 A2985 RMK A01 T01030096  RH  099%=      5-min Rain = 0
KLES 160730Z 08005KT 10/10 A2985 RMK A01 T01020096  RH  099%=      5-min Rain = 0
KLES 160735Z 07005KT 10/10 A2985 RMK A01 T01020095  RH  099%=      5-min Rain = 0
KLES 160740Z 07004KT 10/10 A2985 RMK A01 T01020095  RH  099%=      5-min Rain = 0
KLES 160745Z 07004KT 10/10 A2985 RMK A01 T01010095  RH  099%=      5-min Rain = 0.01
KLES 160750Z 08004KT 10/09 A2984 RMK A01 T01010094  RH  099%=      5-min Rain = 0
KLES 160755Z 07002KT 10/10 A2985 RMK A01 T01010095  RH  099%=      5-min Rain = 0
KLES 160800Z 08003KT 10/10 A2985 RMK A01 T01010095  RH  099%=      5-min Rain = 0
KLES 160805Z 07003KT 10/10 A2984 RMK A01 T01010095  RH  099%=      5-min Rain = 0
KLES 160810Z 07003KT 10/09 A2984 RMK A01 T01010094  RH  099%=      5-min Rain = 0
KLES 160815Z 08003KT 10/09 A2984 RMK A01 T01010094  RH  099%=      5-min Rain = 0
KLES 160820Z 07002KT 10/10 A2985 RMK A01 T01010095  RH  099%=      5-min Rain = 0
KLES 160825Z 06002KT 10/10 A2984 RMK A01 T01010095  RH  099%=      5-min Rain = 0
KLES 160830Z 04003KT 10/10 A2984 RMK A01 T01010095  RH  099%=      5-min Rain = 0
KLES 160835Z 06003KT 10/10 A2984 RMK A01 T01010095  RH  099%=      5-min Rain = 0
KLES 160840Z 06003KT 10/10 A2984 RMK A01 T01010095  RH  099%=      5-min Rain = 0
KLES 160845Z 05004KT 10/10 A2983 RMK A01 T01010095  RH  099%=      5-min Rain = 0
KLES 160850Z 07004KT 10/10 A2983 RMK A01 T01010095  RH  099%=      5-min Rain = 0
KLES 160855Z 04003KT 10/10 A2984 RMK A01 T01010095  RH  099%=      5-min Rain = 0
KLES 160900Z 04003KT 10/10 A2984 RMK A01 T01020095  RH  099%=      5-min Rain = 0
KLES 160905Z 02004KT 10/10 A2984 RMK A01 T01020096  RH  099%=      5-min Rain = 0
KLES 160910Z 36005KT 10/10 A2984 RMK A01 T01020096  RH  099%=      5-min Rain = 0
KLES 160915Z 00005KT 10/10 A2984 RMK A01 T01030096  RH  099%=      5-min Rain = 0
KLES 160920Z 01004KT 10/10 A2984 RMK A01 T01020096  RH  099%=      5-min Rain = 0
KLES 160925Z 02004KT 10/10 A2984 RMK A01 T01020096  RH  099%=      5-min Rain = 0
KLES 160930Z 02003KT 10/10 A2984 RMK A01 T01030096  RH  099%=      5-min Rain = 0
KLES 160935Z 01003KT 10/10 A2984 RMK A01 T01030096  RH  099%=      5-min Rain = 0
KLES 160940Z 02001KT 10/10 A2984 RMK A01 T01030096  RH  099%=      5-min Rain = 0
KLES 160945Z 00000KT 10/10 A2983 RMK A01 T01030096  RH  099%=      5-min Rain = 0.01
KLES 160950Z 00000KT 10/10 A2983 RMK A01 T01030096  RH  099%=      5-min Rain = 0
KLES 160955Z 00000KT 10/10 A2983 RMK A01 T01030097  RH  099%=      5-min Rain = 0
KLES 161000Z 00000KT 10/10 A2983 RMK A01 T01030097  RH  099%=      5-min Rain = 0
KLES 161005Z 00000KT 10/10 A2983 RMK A01 T01030097  RH  099%=      5-min Rain = 0
KLES 161010Z 00000KT 10/10 A2983 RMK A01 T01030097  RH  099%=      5-min Rain = 0
KLES 161015Z 34008G14KT 10/10 A2985 RMK A01 T01040098  RH  099%=      5-min Rain = 0
KLES 161020Z 34009KT 11/10 A2986 RMK A01 T01050098  RH  099%=      5-min Rain = 0
KLES 161025Z 35009KT 11/10 A2986 RMK A01 T01050099  RH  099%=      5-min Rain = 0
KLES 161030Z 35009KT 11/10 A2986 RMK A01 T01050099  RH  099%=      5-min Rain = 0
KLES 161035Z 36009KT 11/10 A2985 RMK A01 T01050099  RH  099%=      5-min Rain = 0
KLES 161040Z 36008KT 11/10 A2985 RMK A01 T01050098  RH  099%=      5-min Rain = 0
KLES 161045Z 35007G12KT 10/10 A2985 RMK A01 T01040097  RH  099%=      5-min Rain = 0
KLES 161050Z 35007KT 10/10 A2985 RMK A01 T01020096  RH  099%=      5-min Rain = 0
KLES 161055Z 36008KT 10/10 A2985 RMK A01 T01010095  RH  099%=      5-min Rain = 0
KLES 161100Z 36008KT 10/09 A2986 RMK A01 T01000094  RH  099%=      5-min Rain = 0
KLES 161105Z 36007KT 10/09 A2986 RMK A01 T01000094  RH  099%=      5-min Rain = 0.01
KLES 161110Z 36009KT 10/09 A2987 RMK A01 T01000093  RH  099%=      5-min Rain = 0
KLES 161115Z 00009KT 10/09 A2987 RMK A01 T00990093  RH  099%=      5-min Rain = 0
KLES 161120Z 36008KT 10/09 A2987 RMK A01 T00990093  RH  099%=      5-min Rain = 0
KLES 161125Z 00008KT 10/09 A2987 RMK A01 T00990093  RH  099%=      5-min Rain = 0
KLES 161130Z 00008KT 10/09 A2987 RMK A01 T00990093  RH  099%=      5-min Rain = 0
KLES 161135Z 01009KT 10/09 A2987 RMK A01 T00990093  RH  099%=      5-min Rain = 0
KLES 161140Z 01010KT 10/09 A2987 RMK A01 T00990093  RH  099%=      5-min Rain = 0
KLES 161145Z 01010G16KT 10/09 A2987 RMK A01 T00990093  RH  099%=      5-min Rain = 0
KLES 161150Z 01012KT 10/09 A2987 RMK A01 T00990092  RH  099%=      5-min Rain = 0
KLES 161155Z 01010KT 10/09 A2987 RMK A01 T00980092  RH  099%=      5-min Rain = 0
KLES 161200Z 02009KT 10/09 A2987 RMK A01 T00980092  RH  099%=      5-min Rain = 0
KLES 161205Z 02010KT 10/09 A2987 RMK A01 T00980091  RH  099%=      5-min Rain = 0
KLES 161210Z 02009KT 10/09 A2988 RMK A01 T00970091  RH  099%=      5-min Rain = 0
KLES 161215Z 02009KT 10/09 A2988 RMK A01 T00970091  RH  099%=      5-min Rain = 0
KLES 161220Z 02010KT 10/09 A2988 RMK A01 T00970091  RH  099%=      5-min Rain = 0
KLES 161225Z 02010KT 10/09 A2988 RMK A01 T00970091  RH  099%=      5-min Rain = 0
KLES 161230Z 02009KT 10/09 A2988 RMK A01 T00970091  RH  099%=      5-min Rain = 0
KLES 161235Z 02009KT 10/09 A2988 RMK A01 T00970091  RH  099%=      5-min Rain = 0
KLES 161240Z 02009KT 10/09 A2988 RMK A01 T00970090  RH  099%=      5-min Rain = 0
KLES 161245Z 02008KT 10/09 A2988 RMK A01 T00970091  RH  099%=      5-min Rain = 0
KLES 161250Z 02009KT 10/09 A2988 RMK A01 T00970090  RH  099%=      5-min Rain = 0
KLES 161255Z 02009KT 10/09 A2989 RMK A01 T00960090  RH  099%=      5-min Rain = 0
KLES 161300Z 02008KT 10/09 A2989 RMK A01 T00960089  RH  099%=      5-min Rain = 0
KLES 161305Z 02007KT 10/09 A2989 RMK A01 T00950089  RH  099%=      5-min Rain = 0
KLES 161310Z 02009KT 10/09 A2989 RMK A01 T00950089  RH  099%=      5-min Rain = 0
KLES 161315Z 02008KT 10/09 A2989 RMK A01 T00950089  RH  099%=      5-min Rain = 0
KLES 161320Z 02008KT 10/09 A2989 RMK A01 T00950088  RH  099%=      5-min Rain = 0
KLES 161325Z 02008KT 09/09 A2989 RMK A01 T00940088  RH  099%=      5-min Rain = 0
KLES 161330Z 02008KT 10/09 A2989 RMK A01 T00950088  RH  099%=      5-min Rain = 0
KLES 161335Z 01008G13KT 10/09 A299 RMK A01 T00950088  RH  099%=      5-min Rain = 0
KLES 161340Z 01008KT 10/09 A299 RMK A01 T00950088  RH  099%=      5-min Rain = 0
KLES 161345Z 02009KT 10/09 A299 RMK A01 T00950088  RH  098%=      5-min Rain = 0
KLES 161350Z 02008KT 10/09 A2991 RMK A01 T00950088  RH  098%=      5-min Rain = 0
KLES 161355Z 02005KT 10/09 A2991 RMK A01 T00960089  RH  098%=      5-min Rain = 0
KLES 161400Z 02008KT 10/09 A2991 RMK A01 T00960089  RH  098%=      5-min Rain = 0
KLES 161405Z 02007KT 10/09 A2991 RMK A01 T00970090  RH  098%=      5-min Rain = 0
KLES 161410Z 03006KT 10/09 A2991 RMK A01 T00970090  RH  098%=      5-min Rain = 0
KLES 161415Z 03005KT 10/09 A2991 RMK A01 T00970090  RH  098%=      5-min Rain = 0
KLES 161420Z 03004KT 10/09 A2991 RMK A01 T00980091  RH  098%=      5-min Rain = 0
KLES 161425Z 04005KT 10/09 A2991 RMK A01 T00990091  RH  098%=      5-min Rain = 0
KLES 161430Z 04004KT 10/09 A2991 RMK A01 T01000092  RH  098%=      5-min Rain = 0
KLES 161435Z 03005KT 10/09 A2991 RMK A01 T01000092  RH  098%=      5-min Rain = 0
KLES 161440Z 02006KT 10/09 A2991 RMK A01 T01010093  RH  098%=      5-min Rain = 0
KLES 161445Z 03007KT 10/09 A2992 RMK A01 T01000092  RH  098%=      5-min Rain = 0
KLES 161450Z 03005KT 10/09 A2992 RMK A01 T01000092  RH  098%=      5-min Rain = 0
KLES 161455Z 03007G12KT 10/09 A2992 RMK A01 T01010092  RH  097%=      5-min Rain = 0
KLES 161500Z 03007KT 10/09 A2992 RMK A01 T01010092  RH  097%=      5-min Rain = 0
KLES 161505Z 02007G12KT 10/09 A2992 RMK A01 T01020093  RH  097%=      5-min Rain = 0
KLES 161510Z 03008KT 10/09 A2993 RMK A01 T01010092  RH  097%=      5-min Rain = 0
KLES 161515Z 02008KT 10/09 A2992 RMK A01 T01010091  RH  097%=      5-min Rain = 0
KLES 161520Z 02009KT 10/09 A2993 RMK A01 T01010091  RH  097%=      5-min Rain = 0
KLES 161525Z 04007KT 10/09 A2993 RMK A01 T01010091  RH  096%=      5-min Rain = 0
KLES 161530Z 02007G12KT 10/09 A2993 RMK A01 T01010091  RH  096%=      5-min Rain = 0
KLES 161535Z 02007KT 10/09 A2993 RMK A01 T01020092  RH  096%=      5-min Rain = 0
KLES 161540Z 02007KT 10/09 A2993 RMK A01 T01030092  RH  096%=      5-min Rain = 0
KLES 161545Z 03006KT 10/09 A2993 RMK A01 T01020091  RH  096%=      5-min Rain = 0
KLES 161550Z 03005KT 10/09 A2993 RMK A01 T01030092  RH  096%=      5-min Rain = 0
KLES 161555Z 02006KT 10/09 A2994 RMK A01 T01040093  RH  096%=      5-min Rain = 0
KLES 161600Z 01006KT 11/09 A2994 RMK A01 T01050093  RH  095%=      5-min Rain = 0
KLES 161605Z 01005KT 11/09 A2993 RMK A01 T01060094  RH  095%=      5-min Rain = 0
KLES 161610Z 02006KT 11/09 A2994 RMK A01 T01070094  RH  095%=      5-min Rain = 0
KLES 161615Z 01006G11KT 11/10 A2994 RMK A01 T01080095  RH  094%=      5-min Rain = 0
KLES 161620Z 01007KT 11/10 A2994 RMK A01 T01090095  RH  094%=      5-min Rain = 0
KLES 161625Z 00007KT 11/10 A2994 RMK A01 T01110095  RH  093%=      5-min Rain = 0
KLES 161630Z 35008KT 11/10 A2994 RMK A01 T01120096  RH  093%=      5-min Rain = 0
KLES 161635Z 36007KT 11/10 A2994 RMK A01 T01130096  RH  092%=      5-min Rain = 0
KLES 161640Z 00007KT 11/10 A2994 RMK A01 T01140096  RH  092%=      5-min Rain = 0
KLES 161645Z 35008KT 12/10 A2994 RMK A01 T01160097  RH  091%=      5-min Rain = 0
KLES 161650Z 36006KT 12/10 A2994 RMK A01 T01190099  RH  091%=      5-min Rain = 0
KLES 161655Z 35008KT 12/10 A2994 RMK A01 T01200098  RH  089%=      5-min Rain = 0
KLES 161700Z 36010KT 12/10 A2995 RMK A01 T01210098  RH  089%=      5-min Rain = 0
KLES 161705Z 01009KT 12/10 A2995 RMK A01 T01220099  RH  088%=      5-min Rain = 0
KLES 161710Z 00011KT 12/10 A2995 RMK A01 T01230098  RH  088%=      5-min Rain = 0
KLES 161715Z 00010KT 12/10 A2994 RMK A01 T01220096  RH  087%=      5-min Rain = 0
KLES 161720Z 36012KT 12/10 A2995 RMK A01 T01220095  RH  086%=      5-min Rain = 0
KLES 161725Z 01010G15KT 12/10 A2995 RMK A01 T01230095  RH  086%=      5-min Rain = 0
KLES 161730Z 36009G14KT 13/10 A2995 RMK A01 T01250097  RH  085%=      5-min Rain = 0
KLES 161735Z 35011KT 13/10 A2995 RMK A01 T01260096  RH  084%=      5-min Rain = 0
KLES 161740Z 35011G16KT 13/10 A2995 RMK A01 T01260095  RH  084%=      5-min Rain = 0
KLES 161745Z 35012KT 12/09 A2995 RMK A01 T01240093  RH  084%=      5-min Rain = 0
KLES 161750Z 01011G16KT 12/09 A2996 RMK A01 T01230092  RH  084%=      5-min Rain = 0
KLES 161755Z 36011G16KT 12/09 A2995 RMK A01 T01230093  RH  084%=      5-min Rain = 0
KLES 161800Z 36012KT 12/09 A2996 RMK A01 T01200091  RH  085%=      5-min Rain = 0
KLES 161805Z 36011G17KT 12/09 A2996 RMK A01 T01200092  RH  086%=      5-min Rain = 0
KLES 161810Z 35012G18KT 12/09 A2996 RMK A01 T01170089  RH  085%=      5-min Rain = 0
KLES 161815Z 36010G15KT 12/09 A2996 RMK A01 T01190091  RH  085%=      5-min Rain = 0
KLES 161820Z 36010KT 12/09 A2996 RMK A01 T01220090  RH  084%=      5-min Rain = 0
KLES 161825Z 36011KT 12/09 A2996 RMK A01 T01240092  RH  083%=      5-min Rain = 0
KLES 161830Z 35010KT 13/09 A2996 RMK A01 T01280093  RH  082%=      5-min Rain = 0
KLES 161835Z 35009G16KT 13/09 A2996 RMK A01 T01300092  RH  080%=      5-min Rain = 0
KLES 161840Z 00010KT 13/09 A2996 RMK A01 T01340093  RH  078%=      5-min Rain = 0
KLES 161845Z 01012G18KT 14/09 A2995 RMK A01 T01370089  RH  075%=      5-min Rain = 0
KLES 161850Z 01011G16KT 14/09 A2995 RMK A01 T01380088  RH  074%=      5-min Rain = 0
KLES 161855Z 01012G17KT 14/09 A2995 RMK A01 T01410089  RH  073%=      5-min Rain = 0
KLES 161900Z 01012G17KT 14/09 A2995 RMK A01 T01420089  RH  073%=      5-min Rain = 0
KLES 161905Z 00011KT 15/09 A2995 RMK A01 T01460091  RH  072%=      5-min Rain = 0
KLES 161910Z 02010G15KT 15/09 A2995 RMK A01 T01480090  RH  070%=      5-min Rain = 0
KLES 161915Z 01010G15KT 15/09 A2995 RMK A01 T01490089  RH  069%=      5-min Rain = 0
KLES 161920Z 02014KT 15/09 A2995 RMK A01 T01520086  RH  067%=      5-min Rain = 0
KLES 161925Z 02012G18KT 15/09 A2995 RMK A01 T01530085  RH  066%=      5-min Rain = 0
KLES 161930Z 02013G19KT 15/09 A2994 RMK A01 T01530086  RH  066%=      5-min Rain = 0
KLES 161935Z 03012G19KT 16/09 A2994 RMK A01 T01550086  RH  066%=      5-min Rain = 0
KLES 161940Z 03011G17KT 16/09 A2994 RMK A01 T01550087  RH  066%=      5-min Rain = 0
KLES 161945Z 03011G17KT 16/09 A2994 RMK A01 T01550087  RH  066%=      5-min Rain = 0
KLES 161950Z 01012G17KT 16/09 A2994 RMK A01 T01570088  RH  065%=      5-min Rain = 0
KLES 161955Z 02012G17KT 16/09 A2994 RMK A01 T01610088  RH  064%=      5-min Rain = 0
KLES 162000Z 03013G18KT 16/09 A2994 RMK A01 T01600088  RH  064%=      5-min Rain = 0
KLES 162005Z 02013G19KT 16/09 A2994 RMK A01 T01610089  RH  064%=      5-min Rain = 0
KLES 162010Z 02013G19KT 16/09 A2994 RMK A01 T01620089  RH  064%=      5-min Rain = 0
KLES 162015Z 01013G20KT 16/09 A2995 RMK A01 T01620089  RH  064%=      5-min Rain = 0
KLES 162020Z 02012G17KT 16/09 A2995 RMK A01 T01610086  RH  063%=      5-min Rain = 0
KLES 162025Z 03011G17KT 16/09 A2994 RMK A01 T01630086  RH  062%=      5-min Rain = 0
KLES 162030Z 03011G17KT 16/08 A2995 RMK A01 T01630083  RH  061%=      5-min Rain = 0
KLES 162035Z 04012G18KT 16/08 A2995 RMK A01 T01630083  RH  061%=      5-min Rain = 0
KLES 162040Z 01013G19KT 16/08 A2995 RMK A01 T01640083  RH  060%=      5-min Rain = 0
KLES 162045Z 01012KT 17/08 A2995 RMK A01 T01660083  RH  060%=      5-min Rain = 0
KLES 162050Z 02014G19KT 17/08 A2994 RMK A01 T01660082  RH  059%=      5-min Rain = 0
KLES 162055Z 03013G20KT 16/08 A2994 RMK A01 T01640083  RH  061%=      5-min Rain = 0
KLES 162100Z 03014G19KT 16/08 A2995 RMK A01 T01580081  RH  062%=      5-min Rain = 0
KLES 162105Z 02016G21KT 16/08 A2995 RMK A01 T01570080  RH  061%=      5-min Rain = 0
KLES 162110Z 02013G18KT 16/08 A2995 RMK A01 T01600080  RH  061%=      5-min Rain = 0
KLES 162115Z 02014G21KT 16/08 A2995 RMK A01 T01620078  RH  059%=      5-min Rain = 0
KLES 162120Z 02015G21KT 16/08 A2995 RMK A01 T01590078  RH  060%=      5-min Rain = 0
KLES 162125Z 03015G21KT 16/08 A2994 RMK A01 T01600077  RH  060%=      5-min Rain = 0
KLES 162130Z 03014G19KT 16/08 A2995 RMK A01 T01560075  RH  060%=      5-min Rain = 0
KLES 162135Z 03014KT 16/07 A2995 RMK A01 T01550074  RH  060%=      5-min Rain = 0
KLES 162140Z 02012G17KT 16/07 A2995 RMK A01 T01550072  RH  059%=      5-min Rain = 0
KLES 162145Z 04013G19KT 15/07 A2995 RMK A01 T01540070  RH  059%=      5-min Rain = 0
KLES 162150Z 04014G20KT 15/07 A2994 RMK A01 T01530068  RH  058%=      5-min Rain = 0
KLES 162155Z 03012G18KT 15/07 A2994 RMK A01 T01520066  RH  058%=      5-min Rain = 0
KLES 162200Z 03014G20KT 15/07 A2994 RMK A01 T01510068  RH  059%=      5-min Rain = 0
KLES 162205Z 03012G19KT 15/07 A2994 RMK A01 T01490068  RH  060%=      5-min Rain = 0
KLES 162210Z 04011KT 15/07 A2994 RMK A01 T01510067  RH  059%=      5-min Rain = 0
KLES 162215Z 03013G18KT 15/07 A2994 RMK A01 T01510065  RH  058%=      5-min Rain = 0
KLES 162220Z 02012G19KT 15/07 A2994 RMK A01 T01510066  RH  058%=      5-min Rain = 0
KLES 162225Z 03014G21KT 15/07 A2995 RMK A01 T01510065  RH  058%=      5-min Rain = 0
KLES 162230Z 03012G17KT 15/06 A2995 RMK A01 T01510064  RH  057%=      5-min Rain = 0
KLES 162235Z 03012G17KT 15/06 A2995 RMK A01 T01520062  RH  056%=      5-min Rain = 0
KLES 162240Z 03011KT 15/06 A2995 RMK A01 T01510059  RH  055%=      5-min Rain = 0
KLES 162245Z 02012KT 15/06 A2996 RMK A01 T01520060  RH  056%=      5-min Rain = 0
KLES 162250Z 03012G18KT 15/06 A2996 RMK A01 T01520059  RH  055%=      5-min Rain = 0
KLES 162255Z 03012G18KT 15/06 A2996 RMK A01 T01530060  RH  055%=      5-min Rain = 0
KLES 162300Z 03014G19KT 15/06 A2996 RMK A01 T01540063  RH  056%=      5-min Rain = 0
KLES 162305Z 03012G18KT 15/06 A2996 RMK A01 T01520063  RH  057%=      5-min Rain = 0
KLES 162310Z 03010G17KT 15/06 A2996 RMK A01 T01540062  RH  056%=      5-min Rain = 0
KLES 162315Z 04014G21KT 15/06 A2996 RMK A01 T01540063  RH  056%=      5-min Rain = 0
KLES 162320Z 04014G19KT 15/06 A2996 RMK A01 T01510064  RH  057%=      5-min Rain = 0
KLES 162325Z 03013G20KT 15/06 A2996 RMK A01 T01520063  RH  057%=      5-min Rain = 0
KLES 162330Z 03013G20KT 15/06 A2997 RMK A01 T01510062  RH  056%=      5-min Rain = 0
KLES 162335Z 04013G20KT 15/06 A2997 RMK A01 T01520061  RH  056%=      5-min Rain = 0
KLES 162340Z 04011G18KT 15/06 A2997 RMK A01 T01500060  RH  056%=      5-min Rain = 0
KLES 162345Z 04014G19KT 15/06 A2997 RMK A01 T01510060  RH  056%=      5-min Rain = 0
KLES 162350Z 04011G17KT 15/06 A2998 RMK A01 T01480060  RH  057%=      5-min Rain = 0
KLES 162355Z 03013G26KT 15/06 A2998 RMK A01 T01470057  RH  056%=      5-min Rain = 0
KLES 170000Z 04012G20KT 15/06 A2999 RMK A01 T01470055  RH  055%=      5-min Rain = 0
KLES 170005Z 03011G17KT 15/06 A2998 RMK A01 T01470056  RH  055%=      5-min Rain = 0
KLES 170010Z 04015G20KT 15/05 A2998 RMK A01 T01460053  RH  055%=      5-min Rain = 0
KLES 170015Z 04013G18KT 15/05 A2999 RMK A01 T01450050  RH  054%=      5-min Rain = 0
KLES 170020Z 04013G20KT 15/05 A2998 RMK A01 T01450050  RH  054%=      5-min Rain = 0
KLES 170025Z 05013G18KT 15/05 A2998 RMK A01 T01460049  RH  053%=      5-min Rain = 0
KLES 170030Z 04012G18KT 15/05 A2999 RMK A01 T01460048  RH  053%=      5-min Rain = 0
KLES 170035Z 03014G23KT 14/05 A2999 RMK A01 T01440049  RH  054%=      5-min Rain = 0
KLES 170040Z 03011G19KT 14/05 A2999 RMK A01 T01430051  RH  055%=      5-min Rain = 0
KLES 170045Z 03011G17KT 14/05 A30 RMK A01 T01410050  RH  055%=      5-min Rain = 0
KLES 170050Z 04013G23KT 14/05 A3001 RMK A01 T01390049  RH  056%=      5-min Rain = 0
KLES 170055Z 04013G18KT 14/05 A3001 RMK A01 T01370048  RH  056%=      5-min Rain = 0
KLES 170100Z 04013G20KT 14/05 A3001 RMK A01 T01350047  RH  056%=      5-min Rain = 0
KLES 170105Z 04013G20KT 13/05 A3001 RMK A01 T01330046  RH  057%=      5-min Rain = 0
KLES 170110Z 03012G19KT 13/05 A3001 RMK A01 T01310045  RH  057%=      5-min Rain = 0
KLES 170115Z 04011G16KT 13/05 A3001 RMK A01 T01300047  RH  058%=      5-min Rain = 0
KLES 170120Z 03014G22KT 13/04 A3001 RMK A01 T01260043  RH  058%=      5-min Rain = 0
KLES 170125Z 03015G20KT 12/04 A3001 RMK A01 T01240041  RH  058%=      5-min Rain = 0
KLES 170130Z 03015G21KT 12/04 A3001 RMK A01 T01210040  RH  059%=      5-min Rain = 0
KLES 170135Z 03014G21KT 12/04 A3001 RMK A01 T01190038  RH  059%=      5-min Rain = 0
KLES 170140Z 04014G20KT 12/04 A3002 RMK A01 T01170036  RH  059%=      5-min Rain = 0
KLES 170145Z 03013G21KT 12/04 A3002 RMK A01 T01150035  RH  059%=      5-min Rain = 0
KLES 170150Z 03014G20KT 11/03 A3003 RMK A01 T01130033  RH  059%=      5-min Rain = 0
KLES 170155Z 03015G23KT 11/03 A3003 RMK A01 T01110032  RH  059%=      5-min Rain = 0
KLES 170200Z 03015G22KT 11/03 A3003 RMK A01 T01100031  RH  059%=      5-min Rain = 0
KLES 170205Z 03014G20KT 11/03 A3003 RMK A01 T01080031  RH  060%=      5-min Rain = 0
KLES 170210Z 03015G24KT 11/03 A3003 RMK A01 T01060032  RH  061%=      5-min Rain = 0
KLES 170215Z 03015G22KT 11/03 A3003 RMK A01 T01050033  RH  062%=      5-min Rain = 0
KLES 170220Z 03016G23KT 10/03 A3004 RMK A01 T01020030  RH  062%=      5-min Rain = 0
KLES 170225Z 03015G21KT 10/03 A3005 RMK A01 T01010027  RH  061%=      5-min Rain = 0
KLES 170230Z 03014G20KT 10/03 A3005 RMK A01 T00990027  RH  062%=      5-min Rain = 0
KLES 170235Z 02014G19KT 10/03 A3006 RMK A01 T00970027  RH  063%=      5-min Rain = 0
KLES 170240Z 03015G23KT 10/03 A3007 RMK A01 T00970028  RH  063%=      5-min Rain = 0
KLES 170245Z 03014G21KT 10/03 A3007 RMK A01 T00960029  RH  064%=      5-min Rain = 0
KLES 170250Z 03015G21KT 09/03 A3007 RMK A01 T00940027  RH  064%=      5-min Rain = 0
KLES 170255Z 02015G25KT 09/03 A3007 RMK A01 T00920026  RH  065%=      5-min Rain = 0
KLES 170300Z 02017G25KT 09/02 A3008 RMK A01 T00900024  RH  065%=      5-min Rain = 0
KLES 170305Z 02015G23KT 09/02 A3009 RMK A01 T00880023  RH  065%=      5-min Rain = 0
KLES 170310Z 03015G22KT 09/02 A301 RMK A01 T00860022  RH  065%=      5-min Rain = 0
KLES 170315Z 03016G24KT 08/02 A301 RMK A01 T00840019  RH  064%=      5-min Rain = 0
KLES 170320Z 02015G23KT 08/02 A301 RMK A01 T00830018  RH  065%=      5-min Rain = 0
KLES 170325Z 02016G24KT 08/02 A3011 RMK A01 T00820016  RH  064%=      5-min Rain = 0
KLES 170330Z 02015G20KT 08/02 A301 RMK A01 T00810016  RH  064%=      5-min Rain = 0
KLES 170335Z 02015G20KT 08/02 A3011 RMK A01 T00800015  RH  065%=      5-min Rain = 0
KLES 170340Z 02014G20KT 08/02 A3011 RMK A01 T00800015  RH  065%=      5-min Rain = 0
KLES 170345Z 02016G23KT 08/02 A301 RMK A01 T00790015  RH  065%=      5-min Rain = 0
KLES 170350Z 03014G21KT 08/02 A301 RMK A01 T00790016  RH  065%=      5-min Rain = 0
KLES 170355Z 03016G22KT 08/02 A301 RMK A01 T00780016  RH  066%=      5-min Rain = 0
KLES 170400Z 03014G21KT 08/02 A301 RMK A01 T00770016  RH  066%=      5-min Rain = 0
KLES 170405Z 03014G23KT 08/02 A301 RMK A01 T00770016  RH  066%=      5-min Rain = 0
KLES 170410Z 03015G24KT 08/02 A3011 RMK A01 T00760017  RH  067%=      5-min Rain = 0
KLES 170415Z 03017G23KT 08/02 A3011 RMK A01 T00750017  RH  067%=      5-min Rain = 0
KLES 170420Z 02016G26KT 08/02 A3011 RMK A01 T00750017  RH  068%=      5-min Rain = 0
KLES 170425Z 03016G23KT 07/02 A3012 RMK A01 T00740017  RH  068%=      5-min Rain = 0
KLES 170430Z 02017G26KT 07/02 A3011 RMK A01 T00740017  RH  068%=      5-min Rain = 0
KLES 170435Z 03014G23KT 07/02 A3011 RMK A01 T00730017  RH  068%=      5-min Rain = 0
KLES 170440Z 03016G22KT 07/02 A301 RMK A01 T00730017  RH  069%=      5-min Rain = 0
KLES 170445Z 03016G22KT 07/02 A3011 RMK A01 T00720018  RH  069%=      5-min Rain = 0
KLES 170450Z 03014G26KT 07/02 A3012 RMK A01 T00710017  RH  070%=      5-min Rain = 0
KLES 170455Z 03014G20KT 07/02 A3012 RMK A01 T00700017  RH  070%=      5-min Rain = 0

Page generated in 0.0224 seconds.